Time;durP1;ratioP1;P1;durP2;ratioP2;P2;SDS_P1;SDS_P2;PMS_P1;PMS_P2;Temp;Humidity;BMP_temperature;BMP_pressure;BME280_temperature;BME280_humidity;BME280_pressure;Samples;Min_cycle;Max_cycle;Signal;HPM_P1;HPM_P2
2022/06/13 00:00:15;;;;;;;1.92;1.15;;;;;;;;;;4564924;28;20028;-76
2022/06/13 00:02:25;;;;;;;1.67;1.30;;;;;;;;;;4564590;28;20093;-76
2022/06/13 00:04:36;;;;;;;2.55;1.25;;;;;;;;;;4564572;28;20048;-77
2022/06/13 00:06:47;;;;;;;1.95;1.08;;;;;;;;;;4563297;28;20028;-76
2022/06/13 00:08:57;;;;;;;2.28;1.20;;;;;;;;;;4565654;27;20586;-76
2022/06/13 00:11:11;;;;;;;2.50;1.35;;;;;;;;;;4565588;27;20044;-77
2022/06/13 00:13:21;;;;;;;1.65;1.10;;;;;;;;;;4565802;28;21007;-77
2022/06/13 00:15:31;;;;;;;1.92;1.10;;;;;;;;;;4564708;27;20033;-76
2022/06/13 00:17:42;;;;;;;2.28;1.05;;;;;;;;;;4556887;28;20044;-76
2022/06/13 00:19:53;;;;;;;2.22;1.23;;;;;;;;;;4564216;28;20025;-77
2022/06/13 00:22:03;;;;;;;1.55;1.00;;;;;;;;;;4566222;28;20036;-76
2022/06/13 00:24:14;;;;;;;2.08;1.25;;;;;;;;;;4564983;28;20063;-76
2022/06/13 00:26:26;;;;;;;1.95;1.27;;;;;;;;;;4565673;28;20059;-77
2022/06/13 00:28:37;;;;;;;2.00;1.13;;;;;;;;;;4564919;27;20036;-77
2022/06/13 00:30:47;;;;;;;3.58;1.30;;;;;;;;;;4569272;28;20933;-77
2022/06/13 00:32:58;;;;;;;2.42;1.20;;;;;;;;;;4574026;28;20085;-77
2022/06/13 00:35:08;;;;;;;2.00;1.23;;;;;;;;;;4564266;28;20939;-77
2022/06/13 00:37:19;;;;;;;2.28;1.30;;;;;;;;;;4573706;28;20035;-76
2022/06/13 00:39:29;;;;;;;2.22;1.20;;;;;;;;;;4565055;27;20040;-77
2022/06/13 00:41:43;;;;;;;2.00;1.10;;;;;;;;;;4563764;28;23734;-76
2022/06/13 00:43:54;;;;;;;2.20;1.20;;;;;;;;;;4566275;28;20028;-76
2022/06/13 00:46:30;;;;;;;2.13;1.40;;;;;;;;;;4564842;28;20069;-77
2022/06/13 00:48:40;;;;;;;2.33;1.17;;;;;;;;;;4565228;28;20035;-77
2022/06/13 00:50:57;;;;;;;1.90;1.20;;;;;;;;;;4565315;28;20060;-78
2022/06/13 00:53:12;;;;;;;2.63;1.30;;;;;;;;;;4566787;28;20028;-77
2022/06/13 00:55:31;;;;;;;1.90;1.30;;;;;;;;;;4564360;28;20606;-76
2022/06/13 00:57:42;;;;;;;3.00;1.40;;;;;;;;;;4566382;28;20032;-78
2022/06/13 00:59:59;;;;;;;2.00;1.25;;;;;;;;;;4566996;28;20028;-77
2022/06/13 01:02:10;;;;;;;4.03;1.27;;;;;;;;;;4564756;28;20901;-77
2022/06/13 01:04:20;;;;;;;2.83;1.23;;;;;;;;;;4564447;28;20033;-77
2022/06/13 01:06:35;;;;;;;2.70;1.20;;;;;;;;;;4563564;28;31584;-77
2022/06/13 01:08:45;;;;;;;2.45;1.27;;;;;;;;;;4565641;28;20071;-77
2022/06/13 01:11:17;;;;;;;2.30;1.40;;;;;;;;;;4564900;28;20143;-77
2022/06/13 01:13:39;;;;;;;3.25;1.50;;;;;;;;;;4565411;27;20028;-76
2022/06/13 01:16:23;;;;;;;2.13;1.30;;;;;;;;;;4566472;28;20039;-77
2022/06/13 01:19:03;;;;;;;2.28;1.30;;;;;;;;;;4563575;28;20112;-75
2022/06/13 01:21:47;;;;;;;2.00;1.10;;;;;;;;;;4567323;28;20043;-78
2022/06/13 01:24:43;;;;;;;2.22;1.17;;;;;;;;;;4559125;28;20647;-77
2022/06/13 01:27:10;;;;;;;2.63;1.17;;;;;;;;;;4561959;28;21195;-77
2022/06/13 01:29:39;;;;;;;;;;;;;;;;;;4568272;28;20103;-77
2022/06/13 01:32:08;;;;;;;1.85;1.25;;;;;;;;;;4550698;28;20499;-77
2022/06/13 01:34:34;;;;;;;3.15;1.38;;;;;;;;;;4573149;28;20040;-77
2022/06/13 01:37:15;;;;;;;2.42;1.10;;;;;;;;;;4564918;28;20036;-77
2022/06/13 01:39:50;;;;;;;2.05;1.40;;;;;;;;;;4567625;28;20052;-76
2022/06/13 01:42:12;;;;;;;2.47;1.17;;;;;;;;;;4563167;28;20614;-76
2022/06/13 01:44:46;;;;;;;2.70;1.30;;;;;;;;;;4563020;28;20037;-77
2022/06/13 01:47:39;;;;;;;1.85;1.10;;;;;;;;;;4565699;28;20044;-77
2022/06/13 01:50:06;;;;;;;2.55;1.40;;;;;;;;;;4563460;28;20083;-77
2022/06/13 01:52:20;;;;;;;2.58;1.50;;;;;;;;;;4563713;28;20036;-76
2022/06/13 01:54:46;;;;;;;2.78;1.50;;;;;;;;;;4565137;28;20136;-76
2022/06/13 01:57:02;;;;;;;1.75;1.20;;;;;;;;;;4564027;28;20044;-76
2022/06/13 01:59:27;;;;;;;2.45;1.30;;;;;;;;;;4565146;28;20036;-74
2022/06/13 02:01:42;;;;;;;2.63;1.42;;;;;;;;;;4564309;28;20036;-77
2022/06/13 02:04:21;;;;;;;2.60;1.40;;;;;;;;;;4565524;28;20566;-78
2022/06/13 02:06:36;;;;;;;2.78;1.40;;;;;;;;;;4562057;28;20052;-77
2022/06/13 02:08:50;;;;;;;1.58;1.10;;;;;;;;;;4567026;28;20665;-76
2022/06/13 02:11:10;;;;;;;1.95;1.20;;;;;;;;;;4555262;28;20028;-76
2022/06/13 02:13:27;;;;;;;1.95;1.27;;;;;;;;;;4538799;28;20036;-76
2022/06/13 02:15:46;;;;;;;1.52;1.10;;;;;;;;;;4566543;28;20089;-76
2022/06/13 02:18:08;;;;;;;1.98;1.30;;;;;;;;;;4562149;28;20038;-76
2022/06/13 02:20:29;;;;;;;3.17;1.45;;;;;;;;;;4562672;28;20115;-75
2022/06/13 02:22:42;;;;;;;2.35;1.30;;;;;;;;;;4564389;28;20735;-76
2022/06/13 02:25:02;;;;;;;3.38;1.40;;;;;;;;;;4560986;28;20655;-76
2022/06/13 02:27:14;;;;;;;2.47;1.40;;;;;;;;;;4560613;28;20028;-76
2022/06/13 02:29:29;;;;;;;2.67;1.30;;;;;;;;;;4566574;28;20032;-76
2022/06/13 02:31:43;;;;;;;2.53;1.40;;;;;;;;;;4565465;28;20047;-77
2022/06/13 02:34:19;;;;;;;1.67;1.30;;;;;;;;;;4562419;28;20206;-76
2022/06/13 02:36:37;;;;;;;2.80;1.58;;;;;;;;;;4561553;28;20646;-76
2022/06/13 02:39:06;;;;;;;3.17;1.80;;;;;;;;;;4563460;28;20033;-76
2022/06/13 02:41:20;;;;;;;2.22;1.50;;;;;;;;;;4555145;28;20033;-77
2022/06/13 02:43:46;;;;;;;1.80;1.17;;;;;;;;;;4562693;27;20031;-77
2022/06/13 02:46:00;;;;;;;3.78;1.50;;;;;;;;;;4563246;28;21688;-76
2022/06/13 02:48:15;;;;;;;1.60;1.20;;;;;;;;;;4563681;28;20032;-77
2022/06/13 02:50:36;;;;;;;1.67;1.20;;;;;;;;;;4555255;28;20127;-77
2022/06/13 02:52:57;;;;;;;2.78;1.35;;;;;;;;;;4561934;28;20715;-76
2022/06/13 02:55:10;;;;;;;2.10;1.40;;;;;;;;;;4562083;28;20062;-76
2022/06/13 02:57:46;;;;;;;2.58;1.40;;;;;;;;;;4564823;28;20588;-76
2022/06/13 03:00:15;;;;;;;1.95;1.40;;;;;;;;;;4563330;28;20783;-76
2022/06/13 03:02:46;;;;;;;2.20;1.23;;;;;;;;;;4564300;28;20036;-76
2022/06/13 03:05:02;;;;;;;2.55;1.60;;;;;;;;;;4562365;28;20595;-76
2022/06/13 03:07:35;;;;;;;1.98;1.20;;;;;;;;;;4561609;28;20020;-77
2022/06/13 03:10:08;;;;;;;2.50;1.40;;;;;;;;;;4564329;28;20040;-76
2022/06/13 03:12:36;;;;;;;2.65;1.60;;;;;;;;;;4553670;28;20628;-76
2022/06/13 03:14:51;;;;;;;2.53;1.55;;;;;;;;;;4565369;28;20860;-76
2022/06/13 03:17:10;;;;;;;2.30;1.58;;;;;;;;;;4563269;28;20024;-76
2022/06/13 03:19:46;;;;;;;3.45;1.70;;;;;;;;;;4561176;28;20032;-76
2022/06/13 03:22:37;;;;;;;2.17;1.50;;;;;;;;;;4563345;27;20119;-76
2022/06/13 03:25:24;;;;;;;2.25;1.52;;;;;;;;;;4562593;28;20048;-76
2022/06/13 03:27:39;;;;;;;2.70;1.48;;;;;;;;;;4562695;28;20055;-76
2022/06/13 03:29:55;;;;;;;2.80;1.40;;;;;;;;;;4567218;28;20044;-76
2022/06/13 03:32:22;;;;;;;2.35;1.55;;;;;;;;;;4565555;28;21537;-76
2022/06/13 03:34:34;;;;;;;;;;;;;;;;;;4565829;28;20037;-77
2022/06/13 03:36:55;;;;;;;3.00;1.50;;;;;;;;;;4563762;28;20467;-77
2022/06/13 03:39:16;;;;;;;2.08;1.30;;;;;;;;;;4566247;28;20024;-77
2022/06/13 03:41:36;;;;;;;2.50;1.38;;;;;;;;;;4563946;28;20045;-78
2022/06/13 03:43:51;;;;;;;2.20;1.40;;;;;;;;;;4564487;28;20395;-77
2022/06/13 03:46:25;;;;;;;2.67;1.60;;;;;;;;;;4568039;28;20067;-77
2022/06/13 03:48:45;;;;;;;1.70;1.40;;;;;;;;;;4566163;28;20658;-77
2022/06/13 03:51:00;;;;;;;2.30;1.38;;;;;;;;;;4564667;28;20207;-77
2022/06/13 03:53:16;;;;;;;1.70;1.35;;;;;;;;;;4565601;28;20765;-78
2022/06/13 03:55:33;;;;;;;3.85;1.58;;;;;;;;;;4567015;28;20036;-77
2022/06/13 03:57:49;;;;;;;1.92;1.20;;;;;;;;;;4565271;28;20028;-77
2022/06/13 04:00:08;;;;;;;2.03;1.42;;;;;;;;;;4568688;28;20871;-77
2022/06/13 04:02:25;;;;;;;2.03;1.45;;;;;;;;;;4568890;28;20036;-77
2022/06/13 04:04:42;;;;;;;2.83;1.50;;;;;;;;;;4568853;28;20186;-77
2022/06/13 04:06:55;;;;;;;2.80;1.50;;;;;;;;;;4567168;28;20032;-76
2022/06/13 04:09:11;;;;;;;2.50;1.23;;;;;;;;;;4566111;27;20031;-77
2022/06/13 04:11:27;;;;;;;1.98;1.33;;;;;;;;;;4565184;28;20082;-77
2022/06/13 04:13:52;;;;;;;2.20;1.33;;;;;;;;;;4564940;28;20844;-77
2022/06/13 04:16:28;;;;;;;3.22;1.65;;;;;;;;;;4566095;28;20051;-77
2022/06/13 04:19:09;;;;;;;2.78;1.60;;;;;;;;;;4547926;28;20037;-77
2022/06/13 04:21:30;;;;;;;1.70;1.30;;;;;;;;;;4565363;28;20519;-77
2022/06/13 04:23:47;;;;;;;2.33;1.35;;;;;;;;;;4567159;28;20548;-78
2022/06/13 04:26:04;;;;;;;1.90;1.20;;;;;;;;;;4565605;28;20029;-78
2022/06/13 04:28:22;;;;;;;3.13;1.50;;;;;;;;;;4556489;28;20050;-78
2022/06/13 04:30:34;;;;;;;2.33;1.40;;;;;;;;;;4556730;28;20024;-78
2022/06/13 04:33:02;;;;;;;3.22;1.50;;;;;;;;;;4548591;28;20133;-78
2022/06/13 04:35:13;;;;;;;2.80;1.50;;;;;;;;;;4565936;28;20039;-77
2022/06/13 04:37:23;;;;;;;2.00;1.40;;;;;;;;;;4562630;28;20504;-78
2022/06/13 04:39:35;;;;;;;2.42;1.40;;;;;;;;;;4563539;27;20024;-78
2022/06/13 04:41:46;;;;;;;3.65;1.88;;;;;;;;;;4565275;28;20037;-78
2022/06/13 04:43:58;;;;;;;2.80;1.40;;;;;;;;;;4564005;28;20032;-79
2022/06/13 04:46:12;;;;;;;2.33;1.58;;;;;;;;;;4564859;28;20028;-78
2022/06/13 04:48:23;;;;;;;1.92;1.40;;;;;;;;;;4564346;28;20582;-78
2022/06/13 04:50:42;;;;;;;2.47;1.48;;;;;;;;;;4563279;28;20126;-77
2022/06/13 04:52:54;;;;;;;2.80;1.58;;;;;;;;;;4566651;28;20095;-79
2022/06/13 04:55:10;;;;;;;3.03;1.52;;;;;;;;;;4565383;28;20626;-79
2022/06/13 04:57:20;;;;;;;3.63;1.60;;;;;;;;;;4564669;28;20050;-78
2022/06/13 04:59:31;;;;;;;2.28;1.45;;;;;;;;;;4563669;28;20813;-78
2022/06/13 05:01:49;;;;;;;2.35;1.65;;;;;;;;;;4562931;28;20047;-78
2022/06/13 05:04:02;;;;;;;2.83;1.70;;;;;;;;;;4564149;28;21419;-78
2022/06/13 05:06:22;;;;;;;2.92;1.50;;;;;;;;;;4552946;28;20048;-78
2022/06/13 05:08:35;;;;;;;3.70;1.40;;;;;;;;;;4566722;28;21457;-77
2022/06/13 05:10:48;;;;;;;3.08;1.75;;;;;;;;;;4562867;28;20041;-78
2022/06/13 05:12:58;;;;;;;2.80;1.58;;;;;;;;;;4562581;28;20024;-79
2022/06/13 05:15:29;;;;;;;3.63;1.88;;;;;;;;;;4550553;28;20437;-78
2022/06/13 05:18:04;;;;;;;4.07;1.50;;;;;;;;;;4565099;28;20083;-78
2022/06/13 05:20:26;;;;;;;3.05;1.70;;;;;;;;;;4564327;28;20093;-75
2022/06/13 05:22:40;;;;;;;4.45;1.83;;;;;;;;;;4563351;28;20043;-74
2022/06/13 05:25:18;;;;;;;1.98;1.30;;;;;;;;;;4563675;28;20604;-73
2022/06/13 05:27:28;;;;;;;2.75;1.67;;;;;;;;;;4561047;28;20044;-74
2022/06/13 05:29:38;;;;;;;2.45;1.77;;;;;;;;;;4565465;28;20035;-73
2022/06/13 05:31:49;;;;;;;2.95;1.67;;;;;;;;;;4565459;28;20039;-75
2022/06/13 05:33:59;;;;;;;3.47;1.92;;;;;;;;;;4566595;28;20031;-75
2022/06/13 05:36:14;;;;;;;2.17;1.60;;;;;;;;;;4562193;28;20036;-75
2022/06/13 05:38:30;;;;;;;2.88;1.40;;;;;;;;;;4564525;28;20029;-75
2022/06/13 05:40:41;;;;;;;2.03;1.40;;;;;;;;;;4564017;28;21724;-75
2022/06/13 05:42:52;;;;;;;3.38;1.70;;;;;;;;;;4548518;28;20122;-74
2022/06/13 05:45:02;;;;;;;2.80;1.50;;;;;;;;;;4560556;28;20195;-75
2022/06/13 05:47:18;;;;;;;2.88;1.60;;;;;;;;;;4565577;27;20047;-73
2022/06/13 05:49:29;;;;;;;3.50;1.40;;;;;;;;;;4563140;28;20027;-74
2022/06/13 05:51:41;;;;;;;2.20;1.40;;;;;;;;;;4563110;28;20583;-73
2022/06/13 05:53:52;;;;;;;2.92;1.50;;;;;;;;;;4560662;28;20036;-73
2022/06/13 05:56:03;;;;;;;2.70;1.38;;;;;;;;;;4563403;28;20033;-73
2022/06/13 05:58:16;;;;;;;2.10;1.30;;;;;;;;;;4563009;28;20575;-74
2022/06/13 06:00:30;;;;;;;2.65;1.55;;;;;;;;;;4571862;28;20036;-73
2022/06/13 06:02:41;;;;;;;2.55;1.50;;;;;;;;;;4562526;28;20076;-73
2022/06/13 06:04:52;;;;;;;2.13;1.40;;;;;;;;;;4565365;28;20615;-73
2022/06/13 06:07:02;;;;;;;2.05;1.45;;;;;;;;;;4563706;27;20036;-73
2022/06/13 06:09:13;;;;;;;2.35;1.65;;;;;;;;;;4572012;28;20477;-73
2022/06/13 06:11:25;;;;;;;3.08;1.55;;;;;;;;;;4563038;28;21055;-73
2022/06/13 06:13:35;;;;;;;2.20;1.42;;;;;;;;;;4561495;27;20036;-73
2022/06/13 06:15:47;;;;;;;2.45;1.50;;;;;;;;;;4563150;28;20047;-73
2022/06/13 06:17:58;;;;;;;2.50;1.75;;;;;;;;;;4549003;28;20031;-73
2022/06/13 06:20:14;;;;;;;2.45;1.75;;;;;;;;;;4564252;28;20031;-72
2022/06/13 06:22:24;;;;;;;3.25;1.65;;;;;;;;;;4566002;28;21119;-73
2022/06/13 06:24:35;;;;;;;3.00;1.60;;;;;;;;;;4564671;28;20102;-73
2022/06/13 06:26:45;;;;;;;2.28;1.40;;;;;;;;;;4563424;28;20046;-77
2022/06/13 06:28:56;;;;;;;2.70;1.50;;;;;;;;;;4564079;28;20028;-78
2022/06/13 06:31:06;;;;;;;2.35;1.40;;;;;;;;;;4547665;28;20079;-78
2022/06/13 06:33:17;;;;;;;2.78;1.58;;;;;;;;;;4563305;28;20037;-78
2022/06/13 06:35:29;;;;;;;1.92;1.30;;;;;;;;;;4570828;28;20036;-78
2022/06/13 06:37:40;;;;;;;3.40;1.70;;;;;;;;;;4549364;28;20102;-78
2022/06/13 06:39:51;;;;;;;3.17;1.60;;;;;;;;;;4562709;28;20858;-78
2022/06/13 06:42:01;;;;;;;3.33;1.42;;;;;;;;;;4563841;28;20031;-79
2022/06/13 06:44:12;;;;;;;2.22;1.25;;;;;;;;;;4567879;27;20082;-79
2022/06/13 06:46:24;;;;;;;2.67;1.40;;;;;;;;;;4563418;28;20073;-79
2022/06/13 06:48:36;;;;;;;2.95;1.52;;;;;;;;;;4563229;28;20072;-79
2022/06/13 06:50:49;;;;;;;1.95;1.30;;;;;;;;;;4560886;28;21222;-79
2022/06/13 06:53:00;;;;;;;2.00;1.30;;;;;;;;;;4565252;28;20583;-79
2022/06/13 07:00:14;;;;;;;2.72;1.35;;;;;;;;;;4564114;28;20884;-79
2022/06/13 07:02:27;;;;;;;2.20;1.20;;;;;;;;;;4565843;28;20450;-79
2022/06/13 07:04:38;;;;;;;2.30;1.40;;;;;;;;;;4566999;28;20041;-79
2022/06/13 07:06:48;;;;;;;1.63;1.17;;;;;;;;;;4568137;28;20024;-79
2022/06/13 07:08:59;;;;;;;3.63;1.45;;;;;;;;;;4566637;27;20033;-79
2022/06/13 07:13:45;;;;;;;2.28;1.20;;;;;;;;;;4563050;28;20046;-78
2022/06/13 07:15:56;;;;;;;1.83;1.10;;;;;;;;;;4567437;28;20097;-78
2022/06/13 07:18:07;;;;;;;2.42;1.25;;;;;;;;;;4567683;28;20046;-79
2022/06/13 07:20:18;;;;;;;2.28;1.10;;;;;;;;;;4568606;28;20584;-79
2022/06/13 07:22:28;;;;;;;2.25;1.20;;;;;;;;;;4570510;28;20020;-78
2022/06/13 07:24:39;;;;;;;2.20;1.10;;;;;;;;;;4568523;28;21015;-78
2022/06/13 07:26:50;;;;;;;1.63;1.10;;;;;;;;;;4568766;28;20036;-78
2022/06/13 07:29:00;;;;;;;2.83;1.35;;;;;;;;;;4568922;28;20059;-78
2022/06/13 07:31:17;;;;;;;1.48;1.33;;;;;;;;;;4567793;28;20036;-76
2022/06/13 07:33:28;;;;;;;2.45;1.20;;;;;;;;;;4553164;28;20104;-79
2022/06/13 07:35:38;;;;;;;2.22;1.10;;;;;;;;;;4568069;28;20405;-79
2022/06/13 07:38:32;;;;;;;2.63;1.42;;;;;;;;;;4568990;28;20044;-79
2022/06/13 07:40:24;;;;;;;2.42;1.20;;;;;;;;;;4548594;28;20106;-79
2022/06/13 07:42:37;;;;;;;2.88;1.58;;;;;;;;;;4565589;28;20705;-78
2022/06/13 07:44:48;;;;;;;2.97;1.65;;;;;;;;;;4568369;28;20074;-79
2022/06/13 07:46:59;;;;;;;2.78;1.70;;;;;;;;;;4568193;27;20065;-78
2022/06/13 07:49:09;;;;;;;3.35;1.70;;;;;;;;;;4565460;28;21414;-77
2022/06/13 07:51:21;;;;;;;3.83;1.70;;;;;;;;;;4566956;28;20094;-78
2022/06/13 07:53:35;;;;;;;2.95;1.90;;;;;;;;;;4566356;28;20890;-79
2022/06/13 07:55:46;;;;;;;3.22;1.70;;;;;;;;;;4560581;28;20083;-78
2022/06/13 07:57:57;;;;;;;3.05;1.90;;;;;;;;;;4566796;28;20812;-78
2022/06/13 08:00:11;;;;;;;3.80;2.20;;;;;;;;;;4564621;28;20121;-78
2022/06/13 08:02:21;;;;;;;4.25;2.13;;;;;;;;;;4565707;28;20031;-79
2022/06/13 08:04:32;;;;;;;4.30;2.13;;;;;;;;;;4574414;28;20094;-79
2022/06/13 08:06:42;;;;;;;3.38;1.75;;;;;;;;;;4567464;27;20067;-78
2022/06/13 08:08:53;;;;;;;4.60;2.38;;;;;;;;;;4568174;28;20380;-78
2022/06/13 08:11:06;;;;;;;4.65;2.42;;;;;;;;;;4566927;28;20035;-77
2022/06/13 08:13:18;;;;;;;3.47;2.35;;;;;;;;;;4565753;28;20040;-79
2022/06/13 08:15:28;;;;;;;4.13;2.30;;;;;;;;;;4562872;28;20020;-61
2022/06/13 08:17:39;;;;;;;3.85;2.30;;;;;;;;;;4546827;28;20052;-65
2022/06/13 08:19:52;;;;;;;4.35;2.13;;;;;;;;;;4564015;28;20032;-66
2022/06/13 08:22:03;;;;;;;2.53;1.88;;;;;;;;;;4573098;28;20042;-66
2022/06/13 08:24:13;;;;;;;2.97;1.70;;;;;;;;;;4564571;28;20033;-65
2022/06/13 08:26:24;;;;;;;3.80;2.33;;;;;;;;;;4572458;28;20032;-66
2022/06/13 08:28:35;;;;;;;2.58;1.70;;;;;;;;;;4565995;28;20107;-66
2022/06/13 08:30:48;;;;;;;3.50;2.45;;;;;;;;;;4563234;28;20036;-66
2022/06/13 08:32:58;;;;;;;3.58;1.90;;;;;;;;;;4562061;28;20028;-66
2022/06/13 08:35:09;;;;;;;3.35;2.00;;;;;;;;;;4563108;28;20432;-66
2022/06/13 08:37:19;;;;;;;2.97;1.90;;;;;;;;;;4564587;28;20044;-66
2022/06/13 08:39:30;;;;;;;3.72;1.80;;;;;;;;;;4561841;28;20695;-65
2022/06/13 08:41:50;;;;;;;2.30;1.58;;;;;;;;;;4564065;28;20103;-67
2022/06/13 08:44:08;;;;;;;3.45;1.90;;;;;;;;;;4565182;28;20043;-71
2022/06/13 08:46:58;;;;;;;2.35;1.70;;;;;;;;;;4570729;28;20032;-71
2022/06/13 08:49:12;;;;;;;3.45;1.92;;;;;;;;;;4550137;28;20037;-72
2022/06/13 08:51:35;;;;;;;3.47;1.90;;;;;;;;;;4564855;28;20028;-73
2022/06/13 08:53:55;;;;;;;3.22;2.00;;;;;;;;;;4574090;28;20040;-73
2022/06/13 08:56:09;;;;;;;4.13;2.20;;;;;;;;;;4565997;27;20044;-73
2022/06/13 08:58:25;;;;;;;3.38;2.10;;;;;;;;;;4564561;28;20107;-72
2022/06/13 09:00:39;;;;;;;3.22;1.80;;;;;;;;;;4566229;27;20040;-72
2022/06/13 09:02:55;;;;;;;2.85;1.60;;;;;;;;;;4566635;28;20044;-68
2022/06/13 09:05:27;;;;;;;3.38;1.80;;;;;;;;;;4563303;28;20168;-61
2022/06/13 09:07:50;;;;;;;2.88;1.77;;;;;;;;;;4548726;28;20701;-60
2022/06/13 09:10:11;;;;;;;2.85;1.65;;;;;;;;;;4565495;28;20028;-64
2022/06/13 09:12:42;;;;;;;2.22;1.55;;;;;;;;;;4565928;28;20074;-63
2022/06/13 09:14:58;;;;;;;3.17;1.70;;;;;;;;;;4566960;28;20673;-63
2022/06/13 09:17:16;;;;;;;2.45;1.77;;;;;;;;;;4564834;27;20036;-63
2022/06/13 09:19:33;;;;;;;3.08;1.77;;;;;;;;;;4565627;27;20519;-63
2022/06/13 09:22:04;;;;;;;3.03;1.80;;;;;;;;;;4572107;28;20040;-63
2022/06/13 09:24:34;;;;;;;2.78;1.73;;;;;;;;;;4550486;28;20029;-62
2022/06/13 09:27:06;;;;;;;2.47;1.60;;;;;;;;;;4561408;28;20047;-62
2022/06/13 09:29:19;;;;;;;4.00;1.80;;;;;;;;;;4566229;28;20043;-62
2022/06/13 09:31:36;;;;;;;3.03;1.80;;;;;;;;;;4563212;28;20035;-62
2022/06/13 09:33:55;;;;;;;3.03;1.90;;;;;;;;;;4562837;28;20119;-62
2022/06/13 09:36:19;;;;;;;3.17;2.00;;;;;;;;;;4561270;28;20852;-62
2022/06/13 09:38:40;;;;;;;3.22;1.80;;;;;;;;;;4566063;28;20518;-62
2022/06/13 09:41:03;;;;;;;2.88;1.73;;;;;;;;;;4566465;28;20134;-62
2022/06/13 09:43:20;;;;;;;3.15;2.20;;;;;;;;;;4562950;28;20063;-63
2022/06/13 09:45:40;;;;;;;2.95;1.80;;;;;;;;;;4562408;28;20157;-62
2022/06/13 09:47:50;;;;;;;3.42;2.22;;;;;;;;;;4561932;28;20080;-63
2022/06/13 09:50:19;;;;;;;3.97;2.20;;;;;;;;;;4563388;27;20032;-63
2022/06/13 09:52:35;;;;;;;3.08;1.90;;;;;;;;;;4563144;28;20043;-63
2022/06/13 09:54:48;;;;;;;3.10;2.40;;;;;;;;;;4571541;28;20098;-64
2022/06/13 09:57:02;;;;;;;5.70;2.60;;;;;;;;;;4562307;28;20091;-63
2022/06/13 09:59:38;;;;;;;4.18;2.50;;;;;;;;;;4562210;28;20044;-63
2022/06/13 10:01:59;;;;;;;3.53;1.98;;;;;;;;;;4561889;28;20028;-62
2022/06/13 10:04:40;;;;;;;2.17;1.88;;;;;;;;;;4562924;27;20210;-63
2022/06/13 10:06:56;;;;;;;3.00;2.25;;;;;;;;;;4565421;28;20036;-63
2022/06/13 10:09:07;;;;;;;;;;;;;;;;;;4565511;28;20040;-61
2022/06/13 10:11:37;;;;;;;4.05;2.40;;;;;;;;;;4564708;28;19911;-63
2022/06/13 10:14:06;;;;;;;3.67;2.30;;;;;;;;;;4553949;28;20052;-61
2022/06/13 10:16:16;;;;;;;3.85;2.60;;;;;;;;;;4560307;28;20036;-62
2022/06/13 10:18:45;;;;;;;4.03;2.80;;;;;;;;;;4563356;28;20036;-61
2022/06/13 10:21:02;;;;;;;4.85;2.90;;;;;;;;;;4562081;28;20074;-62
2022/06/13 10:23:18;;;;;;;3.85;2.80;;;;;;;;;;4562756;28;20135;-64
2022/06/13 10:26:34;;;;;;;4.72;2.92;;;;;;;;;;4562852;28;20032;-62
2022/06/13 10:28:57;;;;;;;3.70;2.72;;;;;;;;;;4463336;28;20242;-60
2022/06/13 10:31:33;;;;;;;4.45;2.80;;;;;;;;;;4560305;28;20044;-63
2022/06/13 10:34:06;;;;;;;4.93;2.72;;;;;;;;;;4564685;28;20036;-62
2022/06/13 10:36:23;;;;;;;4.35;3.28;;;;;;;;;;4564394;28;20156;-62
2022/06/13 10:39:12;;;;;;;5.57;3.05;;;;;;;;;;4559935;28;20123;-62
2022/06/13 10:41:25;;;;;;;6.30;3.28;;;;;;;;;;4561417;28;20032;-64
2022/06/13 10:43:37;;;;;;;5.63;3.60;;;;;;;;;;4560092;28;20029;-62
2022/06/13 10:45:47;;;;;;;5.60;3.45;;;;;;;;;;4547152;28;20207;-63
2022/06/13 10:48:11;;;;;;;3.78;3.08;;;;;;;;;;4563491;28;20029;-62
2022/06/13 10:50:35;;;;;;;4.35;3.13;;;;;;;;;;4546288;28;20116;-62
2022/06/13 10:52:47;;;;;;;5.18;3.20;;;;;;;;;;4560494;28;20750;-62
2022/06/13 10:55:09;;;;;;;6.72;3.30;;;;;;;;;;4561836;28;20040;-61
2022/06/13 10:57:26;;;;;;;5.30;3.65;;;;;;;;;;4571636;28;20716;-70
2022/06/13 10:59:38;;;;;;;4.78;3.05;;;;;;;;;;4562303;28;20044;-70
2022/06/13 11:02:18;;;;;;;3.95;2.80;;;;;;;;;;4565288;28;20963;-70
2022/06/13 11:04:31;;;;;;;6.72;3.45;;;;;;;;;;4557257;28;20044;-70
2022/06/13 11:06:46;;;;;;;4.32;3.15;;;;;;;;;;4562321;28;20372;-70
2022/06/13 11:08:58;;;;;;;5.40;2.80;;;;;;;;;;4565313;28;20985;-69
2022/06/13 11:11:15;;;;;;;4.63;3.03;;;;;;;;;;4563261;28;20671;-71
2022/06/13 11:13:29;;;;;;;5.03;3.00;;;;;;;;;;4562928;28;20024;-71
2022/06/13 11:23:17;;;;;;;3.53;2.20;;;;;;;;;;4572611;28;20575;-71
2022/06/13 11:25:30;;;;;;;2.63;2.13;;;;;;;;;;4564994;28;20035;-70
2022/06/13 11:27:41;;;;;;;3.25;2.25;;;;;;;;;;4563876;28;20035;-71
2022/06/13 11:30:29;;;;;;;3.45;2.60;;;;;;;;;;4564776;28;20032;-71
2022/06/13 11:32:40;;;;;;;3.70;2.10;;;;;;;;;;4565185;28;20142;-71
2022/06/13 11:34:50;;;;;;;3.45;2.13;;;;;;;;;;4565573;28;20696;-71
2022/06/13 11:37:03;;;;;;;4.10;2.15;;;;;;;;;;4547746;28;20353;-71
2022/06/13 11:39:13;;;;;;;3.13;2.00;;;;;;;;;;4563894;28;20036;-70
2022/06/13 11:41:28;;;;;;;3.92;2.50;;;;;;;;;;4538305;28;20041;-71
2022/06/13 11:43:48;;;;;;;3.22;2.25;;;;;;;;;;4563274;28;20954;-71
2022/06/13 11:46:01;;;;;;;2.33;1.65;;;;;;;;;;4563393;28;20110;-71
2022/06/13 11:48:15;;;;;;;2.65;1.17;;;;;;;;;;4563526;28;20025;-71
2022/06/13 11:50:27;;;;;;;2.55;1.13;;;;;;;;;;4565635;27;20179;-71
2022/06/13 11:55:17;;;;;;;2.30;0.90;;;;;;;;;;4564637;28;20087;-70
2022/06/13 11:57:34;;;;;;;2.88;1.20;;;;;;;;;;4565571;28;20036;-71
2022/06/13 11:59:52;;;;;;;;;;;;;;;;;;4565692;28;20036;-71
2022/06/13 12:02:12;;;;;;;;;;;;;;;;;;4566595;28;19920;-70
2022/06/13 12:04:23;;;;;;;1.90;1.00;;;;;;;;;;4567162;28;19915;-71
2022/06/13 12:06:37;;;;;;;0.80;0.77;;;;;;;;;;4565488;28;20308;-71
2022/06/13 12:08:50;;;;;;;1.83;0.98;;;;;;;;;;4573176;28;20077;-71
2022/06/13 12:11:13;;;;;;;1.00;0.70;;;;;;;;;;4564292;28;20131;-71
2022/06/13 12:13:24;;;;;;;1.45;0.70;;;;;;;;;;4565457;28;20040;-71
2022/06/13 12:15:38;;;;;;;1.10;0.73;;;;;;;;;;4564242;28;20057;-70
2022/06/13 12:18:00;;;;;;;1.38;0.80;;;;;;;;;;4563773;28;20028;-70
2022/06/13 12:20:15;;;;;;;1.10;0.70;;;;;;;;;;4539416;28;20060;-71
2022/06/13 12:22:31;;;;;;;1.10;0.80;;;;;;;;;;4568967;27;20032;-69
2022/06/13 12:25:12;;;;;;;1.33;0.80;;;;;;;;;;4563849;28;20579;-72
2022/06/13 12:27:26;;;;;;;1.00;0.75;;;;;;;;;;4567972;28;20114;-72
2022/06/13 12:29:55;;;;;;;1.27;0.70;;;;;;;;;;4562415;28;20024;-73
2022/06/13 12:32:25;;;;;;;0.98;0.68;;;;;;;;;;4565211;27;20090;-72
2022/06/13 12:34:45;;;;;;;0.88;0.70;;;;;;;;;;4567351;28;20032;-74
2022/06/13 12:37:05;;;;;;;1.67;0.77;;;;;;;;;;4565112;28;20095;-71
2022/06/13 12:39:48;;;;;;;0.82;0.70;;;;;;;;;;4564174;28;20258;-71
2022/06/13 12:42:36;;;;;;;1.77;0.80;;;;;;;;;;4550366;28;20270;-69
2022/06/13 12:45:03;;;;;;;1.92;0.80;;;;;;;;;;4565724;28;20131;-70
2022/06/13 12:47:25;;;;;;;0.60;0.60;;;;;;;;;;4564915;28;20044;-71
2022/06/13 12:50:02;;;;;;;1.00;0.60;;;;;;;;;;4565392;28;20514;-71
2022/06/13 12:52:28;;;;;;;1.45;0.70;;;;;;;;;;4565481;28;20572;-72
2022/06/13 12:55:16;;;;;;;2.60;0.70;;;;;;;;;;4563777;28;20042;-72
2022/06/13 12:57:46;;;;;;;1.25;0.55;;;;;;;;;;4563672;28;20051;-70
2022/06/13 13:00:08;;;;;;;1.65;0.70;;;;;;;;;;4564603;28;20039;-70
2022/06/13 13:02:48;;;;;;;2.03;0.70;;;;;;;;;;4565963;27;20608;-73
2022/06/13 13:05:39;;;;;;;1.48;0.60;;;;;;;;;;4555360;28;20982;-70
2022/06/13 13:08:22;;;;;;;0.90;0.60;;;;;;;;;;4563626;28;20103;-72
2022/06/13 13:10:36;;;;;;;2.42;0.80;;;;;;;;;;4558432;28;20040;-67
2022/06/13 13:12:52;;;;;;;1.50;0.70;;;;;;;;;;4563654;28;20366;-71
2022/06/13 13:15:17;;;;;;;1.55;0.80;;;;;;;;;;4580544;27;20032;-72
2022/06/13 13:17:37;;;;;;;1.33;0.70;;;;;;;;;;4566412;28;20075;-72
2022/06/13 13:19:54;;;;;;;1.55;0.70;;;;;;;;;;4548333;28;20187;-71
2022/06/13 13:22:31;;;;;;;2.50;2.30;;;;;;;;;;4556233;28;20040;-72
2022/06/13 13:24:57;;;;;;;3.95;2.42;;;;;;;;;;4560942;28;20070;-71
2022/06/13 13:27:12;;;;;;;1.63;0.70;;;;;;;;;;4565932;28;20039;-71
2022/06/13 13:29:28;;;;;;;1.10;0.70;;;;;;;;;;4567329;28;20028;-71
2022/06/13 13:31:45;;;;;;;2.13;0.80;;;;;;;;;;4572386;28;20040;-72
2022/06/13 13:34:02;;;;;;;1.02;0.70;;;;;;;;;;4572153;28;20123;-73
2022/06/13 13:36:35;;;;;;;1.27;0.80;;;;;;;;;;4563366;28;20468;-74
2022/06/13 13:38:51;;;;;;;2.25;0.60;;;;;;;;;;4563543;28;20678;-72
2022/06/13 13:41:06;;;;;;;0.68;0.65;;;;;;;;;;4567055;28;20565;-71
2022/06/13 13:43:29;;;;;;;0.95;0.50;;;;;;;;;;4562790;28;20671;-71
2022/06/13 13:46:05;;;;;;;1.75;0.60;;;;;;;;;;4564879;28;20290;-71
2022/06/13 13:48:29;;;;;;;0.80;0.60;;;;;;;;;;4562695;27;20542;-71
2022/06/13 13:50:45;;;;;;;2.13;0.70;;;;;;;;;;4572364;28;20157;-71
2022/06/13 13:52:58;;;;;;;0.75;0.68;;;;;;;;;;4563112;28;20066;-71
2022/06/13 13:55:22;;;;;;;1.00;0.50;;;;;;;;;;4564232;28;20024;-72
2022/06/13 13:57:41;;;;;;;0.90;0.50;;;;;;;;;;4567245;27;20046;-73
2022/06/13 13:59:56;;;;;;;0.60;0.60;;;;;;;;;;4548123;28;21450;-73
2022/06/13 14:02:25;;;;;;;1.08;0.52;;;;;;;;;;4562795;28;20058;-71
2022/06/13 14:05:02;;;;;;;0.65;0.50;;;;;;;;;;4563779;28;20121;-71
2022/06/13 14:07:25;;;;;;;1.33;0.52;;;;;;;;;;4562423;27;20456;-70
2022/06/13 14:09:36;;;;;;;0.77;0.52;;;;;;;;;;4566504;28;20036;-72
2022/06/13 14:12:21;;;;;;;0.65;0.50;;;;;;;;;;4564531;28;20036;-71